Butternuts, New York
Current Conditions -  °F | °C
As of 1:53 AM on Saturday 25 Oct 2014 (Local Time) from KBGM Reporting Station
Clear Clear  
Wind Chill: 38°   Ceiling: Unl
Heat Index: 42°   Visibility: 10mi
Dew Point: 32°   Wind: 6mph
Humidity: 67%   Direction: 270°W
Pressure: 29.89"   Gusts: NA
Location:  42.4446°N, 75.3595°W
Report Text: KBGM 250553Z AUTO 27005KT 10SM CLR 06/00 A2989 RMK AO2 SLP124 T00560000 10100 20044 58007
Loading
Personal Weather Stations






























Interactive Weather Map New forecast layout! Learn more

10-Day Weather Forecast

Advertisements
Track Severe Weather on mobile